Calera, Oklahoma
Current Conditions -  °F | °C
As of 4:35 PM on Friday 19 Dec 2014 (Local Time) from KDUA Reporting Station
Overcast Overcast  
Wind Chill: 41°   Ceiling: 900
Heat Index: 45°   Visibility: 7mi
Dew Point: 43°   Wind: 7mph
Humidity: 93%   Direction: 330°NNW
Pressure: 30.19"   Gusts: NA
Location:  33.93°N, 96.43°W
Report Text: KDUA 192235Z AUTO 33006KT 250V020 7SM OVC009 07/06 A3019 RMK AO2
Loading
Personal Weather Stations






























Interactive Weather Map New forecast layout! Learn more

10-Day Weather Forecast

Advertisements
Track Severe Weather on mobile